Time;durP1;ratioP1;P1;durP2;ratioP2;P2;SDS_P1;SDS_P2;PMS_P1;PMS_P2;Temp;Humidity;BMP_temperature;BMP_pressure;BME280_temperature;BME280_humidity;BME280_pressure;Samples;Min_cycle;Max_cycle;Signal;HPM_P1;HPM_P2
2021/12/01 00:00:36;;;;;;;;;12.25;8.50;;;;;9.53;68.74;100280.22;5057768;28;45447;-60
2021/12/01 00:03:01;;;;;;;;;16.00;13.25;;;;;9.54;68.50;100261.69;5075765;28;46354;-61
2021/12/01 00:05:28;;;;;;;;;18.50;16.25;;;;;9.55;68.66;100265.16;5075600;27;45410;-61
2021/12/01 00:07:54;;;;;;;;;13.50;11.75;;;;;9.56;68.55;100264.22;5076059;28;45268;-61
2021/12/01 00:10:20;;;;;;;;;15.00;11.25;;;;;9.56;68.41;100244.03;5075777;28;45573;-60
2021/12/01 00:12:46;;;;;;;;;8.50;8.00;;;;;9.57;68.58;100248.31;5075660;28;46148;-61
2021/12/01 00:15:11;;;;;;;;;12.00;10.00;;;;;9.58;68.65;100236.84;5057530;28;45283;-61
2021/12/01 00:17:37;;;;;;;;;17.25;16.75;;;;;9.59;68.65;100228.03;5056706;28;65623;-60
2021/12/01 00:20:10;;;;;;;;;12.75;9.00;;;;;9.60;68.49;100218.38;5075724;28;45296;-61
2021/12/01 00:22:35;;;;;;;;;10.75;10.50;;;;;9.60;68.38;100200.84;5059896;28;45556;-61
2021/12/01 00:25:01;;;;;;;;;14.25;10.25;;;;;9.62;68.63;100205.97;5078804;28;45376;-61
2021/12/01 00:27:26;;;;;;;;;15.25;14.25;;;;;9.62;68.67;100198.09;5079337;28;45187;-61
2021/12/01 00:29:51;;;;;;;;;11.00;10.75;;;;;9.61;68.44;100183.31;5079205;28;45244;-61
2021/12/01 00:32:17;;;;;;;;;12.75;11.00;;;;;9.61;68.71;100173.63;5078927;28;46035;-61
2021/12/01 00:34:43;;;;;;;;;16.75;14.50;;;;;9.62;68.77;100177.91;5060979;28;45272;-61
2021/12/01 00:37:08;;;;;;;;;16.00;12.75;;;;;9.61;68.65;100167.56;5079027;28;45469;-61
2021/12/01 00:39:33;;;;;;;;;13.75;11.25;;;;;9.60;68.93;100153.63;5078918;27;45402;-61
2021/12/01 00:42:00;;;;;;;;;17.00;14.50;;;;;9.61;68.66;100151.84;5056991;28;46084;-60
2021/12/01 00:44:29;;;;;;;;;16.75;13.75;;;;;9.62;68.72;100141.19;5057301;28;45841;-61
2021/12/01 00:46:57;;;;;;;;;15.25;14.25;;;;;9.62;69.03;100130.69;5057386;28;45489;-60
2021/12/01 00:49:22;;;;;;;;;13.25;12.50;;;;;9.64;68.73;100120.91;5058331;28;45590;-61
2021/12/01 00:51:48;;;;;;;;;18.50;16.75;;;;;9.63;68.86;100116.63;5058272;28;47129;-60
2021/12/01 00:54:14;;;;;;;;;15.50;15.00;;;;;9.62;68.70;100112.34;5057184;28;45363;-60
2021/12/01 00:56:39;;;;;;;;;11.75;10.25;;;;;9.64;68.87;100101.72;5074252;28;45331;-61
2021/12/01 00:59:05;;;;;;;;;15.50;12.00;;;;;9.63;68.79;100094.81;5058488;28;45552;-60
2021/12/01 01:01:31;;;;;;;;;12.50;9.50;;;;;9.65;69.01;100095.50;5058382;28;45457;-60
2021/12/01 01:03:56;;;;;;;;;13.00;11.25;;;;;9.65;68.76;100083.19;5057339;28;63390;-60
2021/12/01 01:06:22;;;;;;;;;19.25;14.50;;;;;9.65;68.63;100077.16;5057154;28;67976;-60
2021/12/01 01:08:47;;;;;;;;;16.00;13.00;;;;;9.64;68.91;100075.50;5057325;28;60264;-61
2021/12/01 01:16:43;;;;;;;;;12.75;9.75;;;;;9.68;69.13;100055.03;5058336;28;45370;-60
2021/12/01 01:19:09;;;;;;;;;12.50;10.50;;;;;9.67;68.79;100059.47;5057776;28;45554;-61
2021/12/01 01:21:36;;;;;;;;;15.00;12.00;;;;;9.66;68.97;100047.31;5057870;28;46777;-61
2021/12/01 01:24:02;;;;;;;;;9.00;9.00;;;;;9.66;68.95;100047.31;5057847;28;45343;-60
2021/12/01 01:26:27;;;;;;;;;9.25;8.00;;;;;9.68;68.89;100049.78;5056943;28;45492;-61
2021/12/01 01:28:53;;;;;;;;;10.75;9.75;;;;;9.68;68.56;100034.06;5057811;28;45379;-61
2021/12/01 01:31:19;;;;;;;;;15.00;11.25;;;;;9.69;68.60;100028.69;5057691;28;45503;-61
2021/12/01 01:33:44;;;;;;;;;11.00;9.00;;;;;9.70;68.89;100032.09;5057413;28;45386;-61
2021/12/01 01:36:10;;;;;;;;;9.50;9.50;;;;;9.69;68.55;100030.47;5057942;28;45346;-61
2021/12/01 01:38:35;;;;;;;;;9.50;8.75;;;;;9.67;68.66;100014.03;5057675;28;45335;-61
2021/12/01 01:41:02;;;;;;;;;10.75;9.00;;;;;9.67;68.97;100008.78;5063996;28;46263;-61
2021/12/01 01:43:28;;;;;;;;;11.25;9.50;;;;;9.67;68.51;100007.00;5059772;28;45804;-61
2021/12/01 01:45:54;;;;;;;;;12.00;9.00;;;;;9.63;68.97;100001.19;5077235;28;58458;-60
2021/12/01 01:48:29;;;;;;;;;11.00;11.00;;;;;9.64;68.91;99997.59;5059913;28;45305;-61
2021/12/01 01:50:54;;;;;;;;;11.50;11.00;;;;;9.63;68.61;99995.94;5077633;28;45486;-61
2021/12/01 01:53:22;;;;;;;;;10.25;9.75;;;;;9.63;68.71;99989.91;5077662;28;45288;-61
2021/12/01 01:55:49;;;;;;;;;12.50;11.00;;;;;9.61;68.77;99979.53;5059935;28;45277;-61
2021/12/01 01:58:15;;;;;;;;;12.50;12.50;;;;;9.62;69.05;99978.56;5077798;28;45450;-60
2021/12/01 02:01:06;;;;;;;;;15.50;9.50;;;;;9.63;68.79;99976.78;5059534;28;46588;-61
2021/12/01 02:03:26;;;;;;;;;8.00;8.00;;;;;9.63;69.09;99979.41;5076957;28;45788;-61
2021/12/01 02:05:53;;;;;;;;;13.25;9.25;;;;;9.63;68.63;99969.72;5059579;28;45486;-61
2021/12/01 02:08:28;;;;;;;;;10.00;9.00;;;;;9.64;68.74;99965.31;5077824;28;45498;-60
2021/12/01 02:10:54;;;;;;;;;9.75;9.75;;;;;9.64;68.73;99960.06;5044007;28;47577;-61
2021/12/01 02:13:20;;;;;;;;;10.75;8.25;;;;;9.65;68.50;99951.22;5059374;28;45243;-61
2021/12/01 02:15:46;;;;;;;;;10.25;9.00;;;;;9.65;68.43;99943.38;5077579;28;45224;-61
2021/12/01 02:18:11;;;;;;;;;13.00;8.25;;;;;9.67;68.72;99933.56;5077778;28;45252;-61
2021/12/01 02:20:40;;;;;;;;;11.25;8.50;;;;;9.67;68.77;99943.22;5076572;28;71411;-61
2021/12/01 02:23:05;;;;;;;;;8.00;7.00;;;;;9.66;68.53;99921.41;5077505;28;45422;-61
2021/12/01 02:25:31;;;;;;;;;10.50;8.00;;;;;9.64;68.87;99918.91;5042031;28;45857;-60
2021/12/01 02:27:56;;;;;;;;;11.50;8.75;;;;;9.66;68.84;99908.28;5077447;28;45374;-60
2021/12/01 02:30:23;;;;;;;;;9.25;8.00;;;;;9.67;68.91;99891.59;5077311;28;45387;-60
2021/12/01 02:32:49;;;;;;;;;10.50;9.00;;;;;9.67;69.00;99890.75;5077299;28;45254;-61
2021/12/01 02:35:14;;;;;;;;;11.50;10.00;;;;;9.66;69.47;99895.19;5077271;28;45309;-61
2021/12/01 02:37:42;;;;;;;;;12.00;10.75;;;;;9.67;69.59;99893.38;5076344;28;66064;-60
2021/12/01 02:40:08;;;;;;;;;10.25;8.50;;;;;9.64;69.71;99882.19;5058133;28;45344;-61
2021/12/01 02:42:33;;;;;;;;;14.00;9.75;;;;;9.64;69.73;99889.25;5076684;28;45283;-61
2021/12/01 02:44:59;;;;;;;;;0.00;0.00;;;;;9.62;70.08;99875.47;5075516;28;58031;-60
2021/12/01 02:47:26;;;;;;;;;13.75;11.25;;;;;9.61;69.95;99873.81;5058963;28;45323;-61
2021/12/01 02:49:55;;;;;;;;;13.00;10.75;;;;;9.59;70.17;99868.69;5076924;28;45509;-61
2021/12/01 02:52:21;;;;;;;;;9.25;9.25;;;;;9.58;70.40;99850.50;5077047;28;45257;-60
2021/12/01 02:54:46;;;;;;;;;12.75;9.50;;;;;9.57;70.47;99857.50;5077179;28;45248;-60
2021/12/01 02:57:12;;;;;;;;;13.00;11.00;;;;;9.54;70.40;99834.19;5076509;28;54367;-61
2021/12/01 02:59:38;;;;;;;;;11.75;11.75;;;;;9.52;70.84;99836.19;5076805;28;45385;-60
2021/12/01 03:02:03;;;;;;;;;10.00;9.75;;;;;9.51;70.75;99813.53;5076822;28;45945;-61
2021/12/01 03:04:29;;;;;;;;;13.00;9.50;;;;;9.49;70.91;99816.28;5076827;28;45389;-60
2021/12/01 03:06:54;;;;;;;;;9.00;9.00;;;;;9.48;70.83;99811.22;5042014;28;45434;-60
2021/12/01 03:09:20;;;;;;;;;13.00;10.50;;;;;9.46;71.04;99807.91;5058551;28;46083;-61
2021/12/01 03:11:45;;;;;;;;;11.50;11.50;;;;;9.44;71.08;99802.00;5058584;28;45322;-60
2021/12/01 03:20:54;;;;;;;;;12.50;9.25;;;;;9.41;71.46;99770.81;5076492;28;45721;-61
2021/12/01 03:23:20;;;;;;;;;7.25;7.25;;;;;9.41;71.30;99766.38;5058389;28;45244;-61
2021/12/01 03:25:45;;;;;;;;;7.00;7.00;;;;;9.42;71.46;99760.16;5076719;28;45373;-61
2021/12/01 03:28:10;;;;;;;;;7.75;7.75;;;;;9.43;71.03;99761.00;5076585;28;45568;-61
2021/12/01 03:30:39;;;;;;;;;7.50;7.50;;;;;9.43;71.21;99750.53;5075308;28;71783;-61
2021/12/01 03:33:06;;;;;;;;;8.50;7.00;;;;;9.43;71.48;99737.41;5076341;28;45395;-61
2021/12/01 03:35:32;;;;;;;;;9.00;7.00;;;;;9.46;71.60;99731.88;5058484;28;45432;-61
2021/12/01 03:37:57;;;;;;;;;6.25;6.25;;;;;9.46;71.47;99737.94;5041428;28;45506;-61
2021/12/01 03:40:23;;;;;;;;;7.00;7.00;;;;;9.48;71.31;99724.69;5057209;28;70640;-60
2021/12/01 03:42:48;;;;;;;;;7.75;6.25;;;;;9.48;71.14;99725.50;5058133;28;45339;-61
2021/12/01 03:45:14;;;;;;;;;8.25;7.00;;;;;9.52;71.41;99720.78;5058175;28;45320;-61
2021/12/01 03:47:39;;;;;;;;;5.50;5.50;;;;;9.54;71.41;99729.31;5076379;28;45272;-61
2021/12/01 03:50:05;;;;;;;;;6.00;6.00;;;;;9.54;71.27;99713.56;5058070;28;45385;-61
2021/12/01 03:52:33;;;;;;;;;8.00;4.50;;;;;9.56;71.67;99710.81;5076090;28;45723;-61
2021/12/01 03:54:58;;;;;;;;;6.00;4.00;;;;;9.57;71.84;99696.72;5076629;28;45368;-61
2021/12/01 03:57:24;;;;;;;;;5.00;5.00;;;;;9.59;72.07;99684.28;5061602;28;45258;-61
2021/12/01 03:59:49;;;;;;;;;5.25;4.00;;;;;9.58;72.23;99670.34;5079569;28;47231;-61
2021/12/01 04:02:15;;;;;;;;;5.00;5.00;;;;;9.60;72.17;99665.75;5078799;28;70692;-61
2021/12/01 04:04:40;;;;;;;;;6.75;4.75;;;;;9.61;72.43;99667.41;5061639;28;45359;-60
2021/12/01 04:07:06;;;;;;;;;5.00;5.00;;;;;9.62;72.38;99658.56;5079738;28;45279;-61
2021/12/01 04:09:31;;;;;;;;;7.25;4.75;;;;;9.62;72.24;99653.31;5079608;28;46396;-61
2021/12/01 04:11:56;;;;;;;;;7.75;5.25;;;;;9.60;72.61;99642.16;5079462;28;47477;-61
2021/12/01 04:14:22;;;;;;;;;7.00;6.50;;;;;9.61;72.67;99635.13;5060823;28;63506;-60
2021/12/01 04:16:47;;;;;;;;;10.50;7.00;;;;;9.62;72.62;99636.78;5061363;28;47919;-61
2021/12/01 04:19:13;;;;;;;;;6.50;6.00;;;;;9.59;72.88;99622.16;5078712;28;67781;-61
2021/12/01 04:21:38;;;;;;;;;9.00;6.00;;;;;9.58;73.02;99620.50;5061507;28;45345;-61
2021/12/01 04:24:04;;;;;;;;;9.50;7.50;;;;;9.56;73.01;99598.03;5079688;28;45223;-61
2021/12/01 04:26:32;;;;;;;;;9.50;6.75;;;;;9.54;73.20;99592.94;5079609;28;45239;-61
2021/12/01 04:28:58;;;;;;;;;9.00;7.00;;;;;9.55;73.38;99594.59;5079394;28;45298;-61
2021/12/01 04:31:24;;;;;;;;;6.75;6.75;;;;;9.55;73.40;99580.66;5079488;28;45385;-61
2021/12/01 04:33:49;;;;;;;;;7.50;6.50;;;;;9.55;73.63;99575.41;5079521;28;45250;-61
2021/12/01 04:36:17;;;;;;;;;8.25;6.75;;;;;9.53;73.85;99570.34;5079526;28;45374;-61
2021/12/01 04:38:42;;;;;;;;;8.50;7.50;;;;;9.53;73.91;99570.34;5060924;28;45578;-60
2021/12/01 04:41:09;;;;;;;;;7.00;7.00;;;;;9.53;73.83;99570.34;5079091;28;45399;-61
2021/12/01 04:43:35;;;;;;;;;8.00;6.00;;;;;9.55;74.02;99557.06;5079213;28;45513;-61
2021/12/01 04:46:00;;;;;;;;;7.50;7.50;;;;;9.53;73.78;99546.75;5079277;28;45308;-60
2021/12/01 04:48:27;;;;;;;;;9.00;7.75;;;;;9.52;74.13;99547.72;5078310;28;68015;-61
2021/12/01 04:50:53;;;;;;;;;8.50;7.00;;;;;9.52;74.01;99531.13;5079035;28;45894;-61
2021/12/01 04:53:19;;;;;;;;;7.25;7.00;;;;;9.47;74.12;99524.56;5079131;28;45323;-61
2021/12/01 04:55:45;;;;;;;;;7.00;6.00;;;;;9.46;74.25;99515.03;5078987;28;45529;-61
2021/12/01 04:58:10;;;;;;;;;5.25;5.25;;;;;9.46;74.40;99515.03;5060408;28;53440;-60
2021/12/01 05:00:37;;;;;;;;;5.00;4.00;;;;;9.45;74.45;99508.16;5078108;28;64935;-61
2021/12/01 05:03:03;;;;;;;;;4.00;4.00;;;;;9.42;74.30;99490.09;5079026;28;45271;-61
2021/12/01 05:05:28;;;;;;;;;5.00;4.00;;;;;9.41;74.48;99487.66;5060738;28;45258;-60
2021/12/01 05:07:54;;;;;;;;;3.75;3.00;;;;;9.41;74.58;99482.41;5077328;28;63306;-61
2021/12/01 05:10:19;;;;;;;;;4.50;3.50;;;;;9.40;74.76;99472.91;5077858;28;66203;-61
2021/12/01 05:12:45;;;;;;;;;4.25;3.50;;;;;9.40;74.52;99486.00;5060775;28;45276;-61
2021/12/01 05:15:10;;;;;;;;;4.25;4.00;;;;;9.38;74.74;99470.41;5077968;28;60082;-61
2021/12/01 05:17:36;;;;;;;;;4.00;3.00;;;;;9.35;74.90;99452.38;5060499;28;45443;-61
2021/12/01 05:20:02;;;;;;;;;4.00;4.00;;;;;9.33;74.65;99457.78;5059999;28;58492;-61
2021/12/01 05:22:27;;;;;;;;;4.00;3.50;;;;;9.32;75.11;99450.06;5078842;28;45559;-61
2021/12/01 05:24:53;;;;;;;;;3.00;3.00;;;;;9.30;75.12;99436.28;5060257;28;45372;-61
2021/12/01 05:27:18;;;;;;;;;3.00;3.00;;;;;9.30;75.16;99444.16;5077707;28;66042;-61
2021/12/01 05:29:43;;;;;;;;;3.75;3.00;;;;;9.28;75.14;99435.63;5078194;28;47871;-61
2021/12/01 05:32:09;;;;;;;;;2.00;2.00;;;;;9.28;75.25;99435.63;5077650;28;64118;-61
2021/12/01 05:34:34;;;;;;;;;3.75;2.00;;;;;9.26;75.55;99416.63;5078353;28;45347;-61
2021/12/01 05:37:00;;;;;;;;;2.00;2.00;;;;;9.25;75.28;99434.13;5078274;28;45681;-61
2021/12/01 05:39:27;;;;;;;;;1.25;1.00;;;;;9.25;75.38;99421.03;5078089;28;45320;-61
2021/12/01 05:41:53;;;;;;;;;2.00;2.00;;;;;9.23;75.44;99422.97;5078019;28;45291;-61
2021/12/01 05:44:18;;;;;;;;;2.00;2.00;;;;;9.24;75.37;99432.50;5078246;28;45303;-61
2021/12/01 05:46:44;;;;;;;;;1.75;1.75;;;;;9.24;75.79;99423.81;5077409;28;64702;-61
2021/12/01 05:49:09;;;;;;;;;2.00;2.00;;;;;9.20;75.74;99413.66;5059363;28;68291;-61
2021/12/01 05:51:34;;;;;;;;;2.75;2.00;;;;;9.21;75.92;99414.47;5077769;28;59557;-62
2021/12/01 05:54:01;;;;;;;;;1.00;1.00;;;;;9.22;75.69;99408.25;5078244;28;45460;-61
2021/12/01 05:56:26;;;;;;;;;1.75;1.75;;;;;9.23;75.62;99401.22;5059680;28;46574;-61
2021/12/01 05:58:51;;;;;;;;;1.00;0.00;;;;;9.23;76.00;99386.28;5077897;28;45444;-61
2021/12/01 06:01:17;;;;;;;;;2.25;2.25;;;;;9.24;75.62;99382.69;5077369;28;60608;-61
2021/12/01 06:03:43;;;;;;;;;2.25;2.00;;;;;9.25;75.64;99379.09;5078035;28;45349;-61
2021/12/01 06:06:08;;;;;;;;;1.00;1.00;;;;;9.26;76.01;99362.41;5077603;28;45399;-61
2021/12/01 06:08:34;;;;;;;;;3.00;1.75;;;;;9.28;75.94;99347.34;5077721;28;45320;-61
2021/12/01 06:10:59;;;;;;;;;1.00;1.00;;;;;9.29;76.17;99343.72;5077790;28;45780;-61
2021/12/01 06:13:25;;;;;;;;;1.50;1.50;;;;;9.30;75.80;99360.25;5058934;28;61384;-61
2021/12/01 06:15:50;;;;;;;;;2.25;1.00;;;;;9.29;75.96;99354.22;5077522;28;45408;-61
2021/12/01 06:18:16;;;;;;;;;2.00;2.00;;;;;9.31;76.00;99348.81;5076949;28;45257;-61
2021/12/01 06:20:41;;;;;;;;;2.00;1.00;;;;;9.32;75.88;99353.91;5077096;28;45327;-61
2021/12/01 06:23:06;;;;;;;;;1.00;1.00;;;;;9.34;76.25;99346.72;5077595;28;45677;-61
2021/12/01 06:25:32;;;;;;;;;2.25;2.25;;;;;9.38;76.26;99346.41;5076732;28;66565;-61
2021/12/01 06:27:57;;;;;;;;;2.00;2.00;;;;;9.40;76.05;99334.75;5076579;28;67043;-61
2021/12/01 06:30:24;;;;;;;;;1.50;1.00;;;;;9.41;76.21;99325.09;5077353;28;45335;-60
2021/12/01 06:32:50;;;;;;;;;1.75;1.25;;;;;9.43;76.08;99333.63;5077418;28;45566;-61
2021/12/01 06:35:15;;;;;;;;;2.00;1.00;;;;;9.44;76.18;99330.03;5058329;28;69615;-61
2021/12/01 06:37:41;;;;;;;;;1.00;1.00;;;;;9.46;76.06;99321.03;5076245;28;63721;-61
2021/12/01 06:40:07;;;;;;;;;1.00;1.00;;;;;9.47;76.07;99308.75;5075990;28;66968;-61
2021/12/01 06:42:33;;;;;;;;;1.00;1.00;;;;;9.48;76.19;99310.38;5077185;28;45560;-60
2021/12/01 06:44:59;;;;;;;;;2.00;1.75;;;;;9.52;76.40;99301.22;5076954;28;45531;-61
2021/12/01 06:47:24;;;;;;;;;2.00;2.00;;;;;9.54;76.08;99309.72;5076372;28;65218;-61
2021/12/01 06:49:49;;;;;;;;;2.00;2.00;;;;;9.55;76.78;99300.88;5076323;28;58277;-61
2021/12/01 06:52:15;;;;;;;;;1.25;1.25;;;;;9.56;76.53;99286.78;5076256;28;64002;-62
2021/12/01 06:54:40;;;;;;;;;2.00;2.00;;;;;9.59;76.30;99285.66;5076881;28;45513;-61
2021/12/01 06:57:06;;;;;;;;;1.00;1.00;;;;;9.61;76.31;99281.06;5058809;28;45404;-61
2021/12/01 06:59:31;;;;;;;;;1.25;1.00;;;;;9.62;76.37;99285.34;5076510;28;53243;-61
2021/12/01 07:01:56;;;;;;;;;1.75;1.00;;;;;9.64;76.22;99286.81;5058044;28;65786;-61
2021/12/01 07:04:22;;;;;;;;;1.00;1.00;;;;;9.65;76.78;99288.44;5075944;28;71970;-61
2021/12/01 07:06:47;;;;;;;;;1.00;1.00;;;;;9.70;76.64;99276.66;5058328;28;45294;-60
2021/12/01 07:09:18;;;;;;;;;2.00;2.00;;;;;9.71;76.50;99276.50;5075954;28;64745;-61
2021/12/01 07:11:45;;;;;;;;;1.00;1.00;;;;;9.73;76.73;99274.56;5058687;28;45717;-61
2021/12/01 07:14:10;;;;;;;;;2.00;2.00;;;;;9.76;76.75;99276.00;5058505;28;46531;-61
2021/12/01 07:16:35;;;;;;;;;2.00;2.00;;;;;9.78;76.49;99289.78;5076735;28;45419;-61
2021/12/01 07:19:01;;;;;;;;;2.00;2.00;;;;;9.80;76.91;99274.72;5076320;28;51770;-61
2021/12/01 07:21:26;;;;;;;;;2.00;2.00;;;;;9.84;76.67;99285.69;5075936;28;62758;-61
2021/12/01 07:23:52;;;;;;;;;3.00;3.00;;;;;9.84;77.33;99276.03;5075566;28;71897;-61
2021/12/01 07:26:17;;;;;;;;;2.00;1.00;;;;;9.87;76.63;99267.84;5075862;28;68483;-61
2021/12/01 07:28:42;;;;;;;;;1.75;1.00;;;;;9.89;76.74;99268.50;5076678;28;45328;-61
2021/12/01 07:31:08;;;;;;;;;1.00;1.00;;;;;9.92;76.84;99269.97;5075141;28;66525;-61
2021/12/01 07:33:34;;;;;;;;;4.00;2.75;;;;;9.94;76.59;99273.25;5075583;28;67612;-61
2021/12/01 07:35:59;;;;;;;;;2.00;2.00;;;;;9.97;76.87;99272.13;5076192;28;45363;-61
2021/12/01 07:38:24;;;;;;;;;1.00;1.00;;;;;9.98;76.61;99273.75;5058317;28;45481;-61
2021/12/01 07:40:50;;;;;;;;;2.50;2.50;;;;;10.00;76.64;99264.72;5075316;28;65880;-61
2021/12/01 07:43:15;;;;;;;;;1.50;1.50;;;;;10.05;76.67;99266.88;5056907;28;71632;-61
2021/12/01 07:45:43;;;;;;;;;1.00;1.00;;;;;10.07;76.74;99270.13;5075924;28;45362;-61
2021/12/01 07:48:10;;;;;;;;;4.00;2.00;;;;;10.07;76.91;99264.88;5076239;28;45498;-61
2021/12/01 07:50:36;;;;;;;;;2.00;2.00;;;;;10.08;76.72;99262.09;5058207;28;45416;-61
2021/12/01 07:53:01;;;;;;;;;1.00;1.00;;;;;10.12;76.53;99269.66;5076105;28;45489;-61
2021/12/01 07:55:27;;;;;;;;;1.00;1.00;;;;;10.13;76.52;99274.72;5076257;28;45381;-61
2021/12/01 07:57:52;;;;;;;;;2.50;2.50;;;;;10.17;76.46;99264.72;5076217;28;45425;-61
2021/12/01 08:00:17;;;;;;;;;2.00;1.00;;;;;10.19;76.50;99265.38;5075276;28;62892;-61
2021/12/01 08:02:45;;;;;;;;;1.00;1.00;;;;;10.19;76.66;99258.31;5075093;28;68339;-61
2021/12/01 08:05:10;;;;;;;;;1.00;1.00;;;;;10.22;76.53;99255.34;5075998;28;45382;-60
2021/12/01 08:07:37;;;;;;;;;2.00;1.00;;;;;10.25;76.20;99241.91;5057405;28;58611;-61
2021/12/01 08:10:04;;;;;;;;;3.50;1.00;;;;;10.26;76.32;99240.13;5058046;28;45217;-61
2021/12/01 08:12:29;;;;;;;;;1.00;1.00;;;;;10.28;76.50;99242.56;5075688;28;45671;-61
2021/12/01 08:14:55;;;;;;;;;1.00;1.00;;;;;10.31;76.43;99231.72;5075527;28;45308;-61
2021/12/01 08:17:20;;;;;;;;;0.00;0.00;;;;;10.32;76.02;99223.69;5074534;28;64700;-61
2021/12/01 08:19:45;;;;;;;;;0.00;0.00;;;;;10.35;76.05;99228.59;5075722;28;45612;-61
2021/12/01 08:22:11;;;;;;;;;0.00;0.00;;;;;10.37;76.44;99231.88;5075001;28;68144;-61
2021/12/01 08:24:36;;;;;;;;;0.00;0.00;;;;;10.41;76.32;99228.94;5075656;28;45355;-61
2021/12/01 08:27:02;;;;;;;;;2.50;0.00;;;;;10.43;75.95;99238.31;5075831;28;45300;-61
2021/12/01 08:29:27;;;;;;;;;1.00;1.00;;;;;10.45;75.77;99235.50;5075898;28;45514;-61
2021/12/01 08:31:53;;;;;;;;;3.00;1.25;;;;;10.47;75.92;99221.22;5074557;28;73770;-61
2021/12/01 08:34:18;;;;;;;;;1.00;1.00;;;;;10.49;76.01;99211.38;5056535;28;73513;-61
2021/12/01 08:36:46;;;;;;;;;1.00;0.00;;;;;10.52;76.08;99212.84;5073742;27;61170;-61
2021/12/01 08:39:12;;;;;;;;;0.00;0.00;;;;;10.53;76.03;99220.56;5075595;27;45557;-61
2021/12/01 08:41:37;;;;;;;;;0.00;0.00;;;;;10.55;75.50;99217.75;5069560;27;73547;-61
2021/12/01 08:44:02;;;;;;;;;1.00;1.00;;;;;10.59;75.92;99213.00;5072255;27;69692;-61
2021/12/01 08:46:28;;;;;;;;;0.00;0.00;;;;;10.61;75.69;99219.72;5073053;27;45570;-61
2021/12/01 08:48:53;;;;;;;;;1.00;1.00;;;;;10.64;75.74;99213.28;5072393;27;46231;-61
2021/12/01 08:51:19;;;;;;;;;0.00;0.00;;;;;10.67;76.16;99218.22;5072273;27;46274;-61
2021/12/01 08:53:44;;;;;;;;;1.00;0.00;;;;;10.73;75.93;99208.84;5071286;27;61557;-61
2021/12/01 08:56:10;;;;;;;;;6.50;4.50;;;;;10.75;75.85;99209.50;5071294;27;64176;-61
2021/12/01 08:58:35;;;;;;;;;2.75;2.75;;;;;10.78;75.65;99211.78;5053464;27;45999;-60
2021/12/01 09:01:01;;;;;;;;;4.50;2.50;;;;;10.80;75.52;99207.97;5070596;27;45471;-61
2021/12/01 09:03:27;;;;;;;;;2.00;2.00;;;;;10.83;75.07;99209.47;5073070;27;45546;-61
2021/12/01 09:05:52;;;;;;;;;3.25;2.50;;;;;10.86;75.28;99201.25;5072085;27;46485;-61
2021/12/01 09:08:20;;;;;;;;;1.00;1.00;;;;;10.90;75.23;99205.16;5071448;27;46459;-60
2021/12/01 09:10:45;;;;;;;;;3.50;3.00;;;;;10.93;74.98;99209.25;5054314;27;47783;-61
2021/12/01 09:13:11;;;;;;;;;4.50;1.75;;;;;10.96;74.46;99201.03;5059573;27;51969;-61
2021/12/01 09:15:38;;;;;;;;;4.50;0.50;;;;;11.01;74.32;99211.84;5073388;27;46309;-61
2021/12/01 09:18:03;;;;;;;;;1.00;1.00;;;;;11.08;74.66;99201.47;5072773;27;45849;-61
2021/12/01 09:20:29;;;;;;;;;1.00;1.00;;;;;11.13;74.16;99199.94;5069810;27;46524;-61
2021/12/01 09:22:54;;;;;;;;;1.00;0.00;;;;;11.22;74.40;99208.63;5071348;27;58366;-61
2021/12/01 09:25:20;;;;;;;;;1.00;0.00;;;;;11.29;73.77;99200.84;5071067;27;64712;-61
2021/12/01 09:27:46;;;;;;;;;0.50;0.50;;;;;11.38;74.03;99205.06;5073622;27;45453;-62
2021/12/01 09:30:12;;;;;;;;;1.00;0.25;;;;;11.48;73.64;99201.41;5070551;27;45657;-61
2021/12/01 09:32:38;;;;;;;;;0.00;0.00;;;;;11.56;72.88;99199.50;5071510;27;47305;-61
2021/12/01 09:35:05;;;;;;;;;1.50;0.00;;;;;11.66;72.74;99199.25;5073190;27;45536;-61
2021/12/01 09:37:30;;;;;;;;;2.00;2.00;;;;;11.75;72.71;99196.56;5045550;27;45703;-61
2021/12/01 09:39:56;;;;;;;;;4.25;1.00;;;;;11.82;72.14;99202.78;5070230;27;67248;-61
2021/12/01 09:42:21;;;;;;;;;2.00;2.00;;;;;11.86;71.84;99196.16;5051247;27;45904;-61
2021/12/01 09:44:47;;;;;;;;;3.00;1.00;;;;;11.88;71.02;99199.44;5019495;28;59401;-61
2021/12/01 09:47:15;;;;;;;;;1.00;1.00;;;;;11.90;70.35;99210.59;5020954;28;45736;-61
2021/12/01 09:49:40;;;;;;;;;0.25;0.25;;;;;11.91;70.13;99209.59;5042626;28;45657;-61
2021/12/01 09:52:08;;;;;;;;;1.00;0.00;;;;;11.92;70.33;99232.31;5023493;28;69134;-61
2021/12/01 09:54:34;;;;;;;;;0.00;0.00;;;;;11.88;69.81;99220.50;5051846;28;45639;-61
2021/12/01 09:56:59;;;;;;;;;0.00;0.00;;;;;11.85;69.35;99219.03;5050863;28;45630;-61
2021/12/01 09:59:24;;;;;;;;;1.00;1.00;;;;;11.83;69.13;99228.94;5051755;28;64404;-61
2021/12/01 10:01:50;;;;;;;;;1.00;1.00;;;;;11.80;69.07;99228.44;5049642;28;45800;-61
2021/12/01 10:04:15;;;;;;;;;0.75;0.75;;;;;11.77;69.06;99221.75;5050271;28;48708;-61
2021/12/01 10:06:41;;;;;;;;;1.00;1.00;;;;;11.76;68.35;99229.78;5042689;28;45403;-61
2021/12/01 10:09:07;;;;;;;;;2.00;1.00;;;;;11.73;68.87;99225.72;5050989;28;61978;-61
2021/12/01 10:11:41;;;;;;;;;1.00;1.00;;;;;11.72;68.48;99238.03;5050251;28;46492;-61
2021/12/01 10:14:06;;;;;;;;;1.75;1.00;;;;;11.71;68.62;99225.88;5032220;28;45982;-61
2021/12/01 10:16:36;;;;;;;;;1.50;1.00;;;;;11.71;68.23;99219.81;5051020;28;45668;-61
2021/12/01 10:19:04;;;;;;;;;4.00;2.75;;;;;11.72;68.61;99224.88;5050909;28;46241;-61
2021/12/01 10:21:40;;;;;;;;;4.00;2.00;;;;;11.74;68.66;99222.09;5048553;28;46638;-61
2021/12/01 10:24:12;;;;;;;;;4.50;2.50;;;;;11.77;68.59;99221.75;5033353;28;45840;-61
2021/12/01 10:26:48;;;;;;;;;1.00;1.00;;;;;11.84;67.50;99211.31;5051497;28;45684;-61
2021/12/01 10:29:19;;;;;;;;;0.50;0.50;;;;;11.91;67.34;99206.19;5051219;28;46226;-61
2021/12/01 10:31:46;;;;;;;;;0.25;0.00;;;;;11.98;67.05;99213.19;5047667;28;46220;-61
2021/12/01 10:34:32;;;;;;;;;1.75;1.00;;;;;12.05;66.68;99212.50;5049518;28;45477;-61
2021/12/01 10:37:34;;;;;;;;;3.00;2.25;;;;;12.09;66.92;99219.03;5050761;28;45607;-60
2021/12/01 10:40:09;;;;;;;;;1.25;1.00;;;;;12.10;66.57;99218.84;4997901;28;45704;-61
2021/12/01 10:42:35;;;;;;;;;1.50;1.25;;;;;12.11;66.71;99219.69;5061855;27;45891;-62
2021/12/01 10:45:06;;;;;;;;;3.00;2.00;;;;;12.09;66.76;99226.94;5051742;27;45841;-61
2021/12/01 10:47:38;;;;;;;;;2.00;1.00;;;;;12.06;66.41;99232.56;5070734;27;46098;-61
2021/12/01 10:50:04;;;;;;;;;3.75;1.00;;;;;12.00;66.52;99234.91;5054928;27;45560;-61
2021/12/01 10:52:32;;;;;;;;;2.50;2.00;;;;;11.95;66.74;99233.75;5056621;27;45920;-61
2021/12/01 10:55:32;;;;;;;;;1.25;1.00;;;;;11.90;66.87;99228.22;5068918;27;45649;-62
2021/12/01 10:57:59;;;;;;;;;1.50;1.50;;;;;11.84;66.91;99230.56;5064535;27;45446;-61
2021/12/01 11:00:36;;;;;;;;;5.25;4.25;;;;;11.81;67.20;99236.19;5067838;27;46581;-61
2021/12/01 11:03:10;;;;;;;;;3.00;3.00;;;;;11.75;67.03;99234.25;5070330;27;46256;-61
2021/12/01 11:05:49;;;;;;;;;2.75;2.00;;;;;11.72;67.21;99224.88;5067670;27;45729;-61
2021/12/01 11:08:19;;;;;;;;;4.25;2.00;;;;;11.69;67.03;99224.44;5057172;27;45613;-60
2021/12/01 11:10:46;;;;;;;;;6.00;2.00;;;;;11.67;67.47;99239.56;5057996;27;46296;-61
2021/12/01 11:13:12;;;;;;;;;4.00;3.50;;;;;11.65;67.52;99234.50;5060428;27;46007;-61
2021/12/01 11:15:51;;;;;;;;;4.25;2.00;;;;;11.66;67.95;99232.66;5055628;27;45564;-61
2021/12/01 11:18:21;;;;;;;;;3.00;2.00;;;;;11.67;67.42;99237.75;5069173;27;45524;-61
2021/12/01 11:20:48;;;;;;;;;3.75;1.00;;;;;11.70;67.36;99231.31;5068143;27;49094;-61
2021/12/01 11:23:18;;;;;;;;;6.75;2.75;;;;;11.70;67.36;99233.97;5051279;27;46068;-60
2021/12/01 11:25:48;;;;;;;;;5.00;4.00;;;;;11.72;67.13;99230.13;5068756;27;46384;-61
2021/12/01 11:28:15;;;;;;;;;8.00;3.25;;;;;11.73;67.10;99229.16;5060317;27;45988;-61
2021/12/01 11:30:42;;;;;;;;;7.25;4.00;;;;;11.76;67.03;99240.31;5066887;27;46011;-61
2021/12/01 11:33:11;;;;;;;;;5.00;3.25;;;;;11.78;66.70;99238.34;5039958;27;45679;-61
2021/12/01 11:35:36;;;;;;;;;3.75;3.75;;;;;11.78;66.97;99233.06;5051751;27;45735;-61
2021/12/01 11:38:02;;;;;;;;;3.00;3.00;;;;;11.82;66.42;99229.09;5068964;27;45855;-60
2021/12/01 11:40:29;;;;;;;;;4.00;3.50;;;;;11.82;66.36;99226.47;5067338;27;65358;-61
2021/12/01 11:42:55;;;;;;;;;5.25;3.00;;;;;11.85;66.23;99232.22;5069752;27;46032;-61